Time;durP1;ratioP1;P1;durP2;ratioP2;P2;SDS_P1;SDS_P2;PMS_P1;PMS_P2;Temp;Humidity;BMP_temperature;BMP_pressure;BME280_temperature;BME280_humidity;BME280_pressure;Samples;Min_cycle;Max_cycle;Signal;HPM_P1;HPM_P2
2023/06/22 00:02:23;;;;;;;10.80;7.30;;;;;;;21.47;100.00;100956.04;106509;1254;73164;-80
2023/06/22 00:05:11;;;;;;;10.40;6.60;;;;;;;21.49;100.00;100955.83;106170;1258;68064;-86
2023/06/22 00:08:04;;;;;;;11.60;6.50;;;;;;;21.42;100.00;100949.19;106277;1253;72791;-81
2023/06/22 00:10:53;;;;;;;11.20;6.80;;;;;;;21.46;100.00;100950.65;107054;1258;60464;-81
2023/06/22 00:13:42;;;;;;;11.20;7.30;;;;;;;21.38;100.00;100956.61;106309;1253;60579;-87
2023/06/22 00:16:34;;;;;;;10.20;6.60;;;;;;;21.26;100.00;100957.65;106426;1253;73888;-87
2023/06/22 00:19:23;;;;;;;13.90;8.30;;;;;;;21.23;100.00;100958.76;106322;1253;68057;-81
2023/06/22 00:22:12;;;;;;;12.80;7.90;;;;;;;21.31;100.00;100961.01;106474;1254;72651;-81
2023/06/22 00:25:00;;;;;;;10.90;6.90;;;;;;;21.16;100.00;100969.60;106462;1259;61024;-81
2023/06/22 00:27:49;;;;;;;11.80;7.60;;;;;;;21.01;100.00;100969.02;106283;1254;60495;-81
2023/06/22 00:30:38;;;;;;;13.10;8.20;;;;;;;20.86;100.00;100968.69;106343;1253;73858;-88
2023/06/22 00:33:28;;;;;;;15.50;8.70;;;;;;;21.01;100.00;100972.59;106416;1254;69331;-87
2023/06/22 00:36:18;;;;;;;13.90;8.80;;;;;;;21.10;100.00;100974.81;106374;1254;72720;-87
2023/06/22 00:39:08;;;;;;;12.40;7.60;;;;;;;21.04;100.00;100972.30;106999;1255;61804;-81
2023/06/22 00:41:57;;;;;;;14.20;7.30;;;;;;;21.03;100.00;100970.52;106199;1253;60719;-81
2023/06/22 00:44:46;;;;;;;13.30;8.20;;;;;;;21.07;100.00;100977.17;106389;1254;73876;-81
2023/06/22 00:47:35;;;;;;;13.00;7.30;;;;;;;21.01;100.00;100978.46;106383;1252;66845;-87
2023/06/22 00:50:26;;;;;;;13.50;8.10;;;;;;;21.00;100.00;100980.96;106707;1254;72690;-87
2023/06/22 00:53:17;;;;;;;10.80;7.70;;;;;;;20.92;100.00;100985.26;106411;1254;60376;-88
2023/06/22 00:56:06;;;;;;;13.30;7.40;;;;;;;20.84;100.00;100983.24;106821;1253;60411;-87
2023/06/22 00:58:58;;;;;;;14.30;7.80;;;;;;;20.80;100.00;100986.05;106288;1254;73844;-86
2023/06/22 01:01:46;;;;;;;11.80;7.40;;;;;;;20.86;100.00;100982.40;106271;1255;69034;-87
2023/06/22 01:04:36;;;;;;;11.60;7.40;;;;;;;21.12;100.00;100982.92;106276;1254;72734;-87
2023/06/22 01:07:36;;;;;;;9.80;6.80;;;;;;;20.92;100.00;100984.29;107336;1257;60412;-87
2023/06/22 01:10:26;;;;;;;10.00;6.50;;;;;;;20.93;100.00;100985.36;106145;1253;59995;-81
2023/06/22 01:13:48;;;;;;;13.30;7.70;;;;;;;20.91;100.00;100992.04;106156;1253;74589;-80
2023/06/22 01:16:40;;;;;;;10.80;6.80;;;;;;;20.73;100.00;100996.55;106450;1253;68743;-81
2023/06/22 01:19:34;;;;;;;13.20;7.70;;;;;;;20.75;100.00;101005.42;106639;1254;71646;-87
2023/06/22 01:22:26;;;;;;;13.10;7.90;;;;;;;21.03;100.00;100999.11;106597;1253;60861;-87
2023/06/22 01:25:33;;;;;;;15.50;8.70;;;;;;;20.89;100.00;101000.53;106602;1253;61596;-88
2023/06/22 01:28:36;;;;;;;14.20;8.00;;;;;;;21.10;100.00;101003.31;106245;1255;73908;-85
2023/06/22 01:31:29;;;;;;;12.80;8.40;;;;;;;21.03;100.00;101014.97;106133;1253;68365;-87
2023/06/22 01:34:18;;;;;;;;;;;;;;;20.96;100.00;101006.05;106438;1258;72711;-81
2023/06/22 01:37:07;;;;;;;17.40;9.10;;;;;;;20.87;100.00;101007.21;107091;1254;60477;-82
2023/06/22 01:39:55;;;;;;;12.50;8.60;;;;;;;20.98;100.00;101008.83;106241;1259;60393;-81
2023/06/22 01:42:44;;;;;;;15.60;9.00;;;;;;;20.99;100.00;101031.66;106274;1253;73854;-82
2023/06/22 01:45:33;;;;;;;16.80;10.10;;;;;;;20.98;100.00;101025.52;106399;1259;67260;-82
2023/06/22 01:48:22;;;;;;;16.50;8.90;;;;;;;21.10;100.00;101022.70;106397;1259;72691;-81
2023/06/22 01:51:11;;;;;;;15.00;9.30;;;;;;;20.89;100.00;101025.11;107569;1256;60399;-87
2023/06/22 01:54:01;;;;;;;16.10;9.20;;;;;;;20.52;100.00;101031.94;106076;1254;60423;-87
2023/06/22 01:56:50;;;;;;;16.70;9.00;;;;;;;20.90;100.00;101033.11;106417;1254;73634;-87
2023/06/22 01:59:59;;;;;;;15.10;8.50;;;;;;;21.14;100.00;101036.12;106607;1253;67279;-87
2023/06/22 02:03:02;;;;;;;13.50;9.20;;;;;;;21.08;100.00;101050.10;106694;1254;71846;-86
2023/06/22 02:05:58;;;;;;;14.60;9.20;;;;;;;20.96;100.00;101050.35;106756;1259;60518;-87
2023/06/22 02:08:48;;;;;;;15.90;9.40;;;;;;;21.07;100.00;101039.11;106157;1254;60438;-86
2023/06/22 02:11:37;;;;;;;17.00;9.80;;;;;;;21.14;100.00;101031.53;107615;1254;72928;-88
2023/06/22 02:14:26;;;;;;;17.50;9.90;;;;;;;21.31;100.00;101028.27;106146;1253;68679;-88
2023/06/22 02:17:17;;;;;;;17.60;10.30;;;;;;;21.28;100.00;101028.56;106169;1254;72646;-88
2023/06/22 02:20:08;;;;;;;15.90;9.40;;;;;;;21.36;100.00;101028.30;107210;1259;60520;-88
2023/06/22 02:22:57;;;;;;;15.30;9.90;;;;;;;21.31;100.00;101028.61;106519;1254;60428;-89
2023/06/22 02:25:45;;;;;;;16.30;9.90;;;;;;;21.40;100.00;101023.66;106110;1257;73877;-87
2023/06/22 02:28:34;;;;;;;15.20;8.60;;;;;;;21.16;100.00;101032.80;106325;1253;67239;-87
2023/06/22 02:31:30;;;;;;;13.90;9.10;;;;;;;21.12;100.00;101033.73;106228;1254;73559;-81
2023/06/22 02:34:19;;;;;;;14.60;8.60;;;;;;;21.44;100.00;101025.10;107302;1254;62551;-88
2023/06/22 02:37:07;;;;;;;13.70;8.90;;;;;;;21.70;100.00;101021.91;106362;1254;60464;-88
2023/06/22 02:39:56;;;;;;;15.60;9.30;;;;;;;21.73;100.00;101020.73;106313;1254;75890;-88
2023/06/22 02:42:45;;;;;;;15.50;9.20;;;;;;;21.50;100.00;101029.92;106226;1254;68002;-87
2023/06/22 02:45:34;;;;;;;14.60;9.20;;;;;;;21.61;100.00;101031.02;106473;1259;73464;-87
2023/06/22 02:48:23;;;;;;;14.60;8.30;;;;;;;21.75;100.00;101024.16;107445;1254;60396;-87
2023/06/22 02:51:11;;;;;;;13.60;8.60;;;;;;;21.70;100.00;101020.17;106356;1256;60346;-88
2023/06/22 02:54:01;;;;;;;11.20;7.40;;;;;;;21.72;100.00;101030.96;106156;1254;72711;-88
2023/06/22 02:56:50;;;;;;;13.40;7.90;;;;;;;22.01;100.00;101034.70;106327;1260;68908;-89
2023/06/22 02:59:43;;;;;;;15.80;8.80;;;;;;;22.00;100.00;101035.17;106209;1259;71458;-88
2023/06/22 03:02:32;;;;;;;12.30;9.00;;;;;;;22.08;100.00;101032.80;106997;1259;60514;-82
2023/06/22 03:05:21;;;;;;;13.20;8.30;;;;;;;22.10;100.00;101032.20;106035;1259;60526;-82
2023/06/22 03:08:10;;;;;;;15.00;8.50;;;;;;;22.37;100.00;101035.27;106109;1254;72868;-82
2023/06/22 03:10:58;;;;;;;11.90;7.60;;;;;;;22.35;100.00;101036.42;106449;1254;68781;-82
2023/06/22 03:13:47;;;;;;;11.60;8.10;;;;;;;22.53;100.00;101039.58;106462;1256;70472;-81
2023/06/22 03:16:38;;;;;;;13.40;8.80;;;;;;;22.81;100.00;101036.13;107562;1253;60438;-88
2023/06/22 03:19:28;;;;;;;14.90;8.20;;;;;;;23.05;100.00;101041.63;106404;1259;61124;-87
2023/06/22 03:22:17;;;;;;;14.20;8.90;;;;;;;23.18;100.00;101043.38;106379;1260;73778;-88
2023/06/22 03:25:12;;;;;;;14.70;9.60;;;;;;;23.25;100.00;101041.77;106235;1254;68406;-88
2023/06/22 03:28:03;;;;;;;15.70;9.80;;;;;;;23.46;100.00;101044.45;106172;1259;73213;-88
2023/06/22 03:30:52;;;;;;;16.10;9.30;;;;;;;23.85;100.00;101044.73;106081;1253;60486;-82
2023/06/22 03:33:41;;;;;;;16.10;9.80;;;;;;;24.07;100.00;101044.96;106126;1254;60591;-89
2023/06/22 03:36:30;;;;;;;15.50;9.80;;;;;;;24.10;100.00;101047.98;106580;1254;76458;-88
2023/06/22 03:39:20;;;;;;;16.30;8.30;;;;;;;24.46;100.00;101049.77;105986;1257;68078;-87
2023/06/22 03:42:09;;;;;;;13.60;9.30;;;;;;;24.57;100.00;101050.30;106222;1254;72892;-87
2023/06/22 03:44:57;;;;;;;13.40;9.70;;;;;;;24.70;100.00;101054.45;106209;1259;60454;-87
2023/06/22 03:47:46;;;;;;;14.00;9.40;;;;;;;24.80;100.00;101056.77;106293;1254;60332;-81
2023/06/22 03:50:35;;;;;;;15.70;10.40;;;;;;;25.13;100.00;101056.70;106706;1254;73404;-88
2023/06/22 03:53:23;;;;;;;17.00;10.10;;;;;;;25.35;100.00;101056.66;106068;1260;67681;-82
2023/06/22 03:56:12;;;;;;;16.40;9.90;;;;;;;25.47;100.00;101058.75;106004;1254;64035;-81
2023/06/22 03:59:01;;;;;;;14.00;10.20;;;;;;;25.57;100.00;101057.06;106073;1254;60553;-81
2023/06/22 04:01:50;;;;;;;20.40;11.60;;;;;;;25.72;100.00;101055.45;107008;1254;60387;-82
2023/06/22 04:04:39;;;;;;;16.70;11.10;;;;;;;25.93;100.00;101051.34;106069;1254;63718;-87
2023/06/22 04:07:28;;;;;;;13.90;10.00;;;;;;;26.30;100.00;101057.71;106396;1254;60546;-87
2023/06/22 04:10:16;;;;;;;17.80;11.30;;;;;;;26.45;100.00;101051.35;106253;1254;62443;-81
2023/06/22 04:13:06;;;;;;;16.60;10.50;;;;;;;26.53;100.00;101049.51;106401;1257;60549;-87
2023/06/22 04:15:55;;;;;;;18.40;10.00;;;;;;;26.75;100.00;101053.73;106424;1253;60633;-86
2023/06/22 04:18:43;;;;;;;15.30;10.30;;;;;;;27.05;100.00;101056.20;107206;1252;64132;-87
2023/06/22 04:21:32;;;;;;;16.50;9.80;;;;;;;27.24;100.00;101059.15;106628;1254;62646;-88
2023/06/22 04:24:21;;;;;;;14.10;9.90;;;;;;;27.38;100.00;101056.55;106380;1260;62458;-87
2023/06/22 04:27:10;;;;;;;13.50;9.50;;;;;;;27.48;100.00;101058.62;106607;1254;60438;-87
2023/06/22 04:30:00;;;;;;;14.10;10.10;;;;;;;27.66;100.00;101057.33;106185;1254;60514;-82
2023/06/22 04:32:56;;;;;;;11.90;9.10;;;;;;;27.86;100.00;101058.23;107394;1253;65450;-87
2023/06/22 04:35:47;;;;;;;13.00;9.80;;;;;;;28.09;100.00;101059.70;106363;1254;60447;-81
2023/06/22 04:38:36;;;;;;;16.20;10.20;;;;;;;28.35;99.67;101063.34;106233;1257;62585;-81
2023/06/22 04:41:25;;;;;;;15.10;10.00;;;;;;;28.48;98.67;101070.40;106204;1253;60497;-87
2023/06/22 04:44:24;;;;;;;14.90;10.90;;;;;;;28.71;97.74;101068.84;106262;1253;60431;-87
2023/06/22 04:47:13;;;;;;;15.40;10.40;;;;;;;29.07;95.95;101069.14;106544;1254;65225;-88
2023/06/22 04:50:05;;;;;;;16.20;10.00;;;;;;;29.39;94.50;101068.61;106138;1254;60462;-86
2023/06/22 04:52:54;;;;;;;;;;;;;;;29.67;92.47;101065.64;106178;1259;62535;-81
2023/06/22 04:55:45;;;;;;;15.10;12.10;;;;;;;29.60;92.87;101070.02;106270;1254;60551;-86
2023/06/22 04:58:34;;;;;;;17.10;11.30;;;;;;;29.63;91.62;101069.31;106396;1254;60551;-87
2023/06/22 05:01:23;;;;;;;19.60;12.20;;;;;;;30.20;88.61;101070.91;106412;1254;64956;-87
2023/06/22 05:04:12;;;;;;;18.00;11.70;;;;;;;30.47;86.75;101070.33;106240;1254;60449;-87
2023/06/22 05:07:02;;;;;;;18.60;12.90;;;;;;;30.86;83.74;101069.46;106164;1254;63726;-88
2023/06/22 05:09:50;;;;;;;17.20;11.20;;;;;;;31.04;81.01;101070.42;106203;1254;107669;-87
2023/06/22 05:12:39;;;;;;;17.10;11.90;;;;;;;31.27;80.15;101069.58;106469;1256;59265;-82
2023/06/22 05:15:30;;;;;;;17.20;12.20;;;;;;;31.47;79.07;101074.46;106443;1254;66432;-82
2023/06/22 05:18:23;;;;;;;18.40;11.30;;;;;;;31.72;77.37;101076.72;106393;1259;60703;-82
2023/06/22 05:21:11;;;;;;;14.70;11.10;;;;;;;32.05;74.38;101078.19;106398;1254;63855;-87
2023/06/22 05:24:02;;;;;;;15.20;11.40;;;;;;;32.27;72.11;101082.36;106237;1254;60449;-87
2023/06/22 05:26:53;;;;;;;18.00;11.00;;;;;;;32.65;69.02;101086.31;107215;1253;60315;-87
2023/06/22 05:29:44;;;;;;;15.40;11.40;;;;;;;32.93;65.98;101086.64;106228;1259;64970;-88
2023/06/22 05:32:33;;;;;;;17.50;11.70;;;;;;;33.07;63.37;101088.88;106377;1252;60838;-87
2023/06/22 05:35:22;;;;;;;16.60;10.80;;;;;;;33.16;61.87;101090.98;106227;1259;63745;-88
2023/06/22 05:38:11;;;;;;;16.80;10.90;;;;;;;33.32;61.20;101090.81;106250;1254;60533;-84
2023/06/22 05:40:59;;;;;;;16.50;10.90;;;;;;;33.50;60.08;101092.73;107285;1258;59243;-89
2023/06/22 05:43:48;;;;;;;16.10;11.30;;;;;;;33.54;59.64;101093.33;106181;1255;63667;-89
2023/06/22 05:46:40;;;;;;;15.10;11.10;;;;;;;34.00;56.38;101093.61;106269;1259;60441;-85
2023/06/22 05:49:32;;;;;;;15.10;10.70;;;;;;;34.22;54.68;101095.49;106087;1254;64071;-89
2023/06/22 05:52:22;;;;;;;15.40;10.70;;;;;;;34.35;53.32;101090.03;106376;1255;60487;-89
2023/06/22 05:55:11;;;;;;;16.00;10.90;;;;;;;34.50;52.01;101090.77;107527;1254;60341;-89
2023/06/22 05:58:00;;;;;;;14.30;10.30;;;;;;;34.54;51.52;101093.23;106447;1254;67030;-88
2023/06/22 06:00:49;;;;;;;14.80;10.00;;;;;;;34.73;50.93;101093.19;106326;1254;61910;-91
2023/06/22 06:03:41;;;;;;;14.70;10.90;;;;;;;34.93;49.94;101093.33;106750;1254;62446;-89
2023/06/22 06:06:30;;;;;;;14.80;11.30;;;;;;;35.13;49.10;101091.38;106360;1256;60365;-88
2023/06/22 06:09:18;;;;;;;12.10;9.60;;;;;;;35.33;46.78;101089.38;106298;1253;59783;-87
2023/06/22 06:12:08;;;;;;;13.80;9.90;;;;;;;35.59;45.82;101091.23;107030;1253;63722;-87
2023/06/22 06:15:00;;;;;;;16.10;11.40;;;;;;;35.78;45.04;101092.80;106245;1256;60446;-90
2023/06/22 06:18:14;;;;;;;15.20;9.70;;;;;;;35.74;42.74;101094.76;106433;1253;74844;-88
2023/06/22 06:21:09;;;;;;;14.80;9.50;;;;;;;35.78;42.49;101098.25;106245;1257;60507;-89
2023/06/22 06:24:06;;;;;;;14.20;10.80;;;;;;;35.89;41.99;101100.02;106215;1259;60368;-87
2023/06/22 06:26:58;;;;;;;14.30;10.00;;;;;;;36.01;42.05;101092.98;106327;1262;65553;-87
2023/06/22 06:29:51;;;;;;;12.50;9.90;;;;;;;36.27;41.26;101089.30;106701;1254;61137;-88
2023/06/22 06:32:51;;;;;;;14.50;10.10;;;;;;;36.25;40.34;101090.40;106400;1254;73382;-88
2023/06/22 06:35:40;;;;;;;14.70;10.00;;;;;;;36.30;39.74;101089.72;106278;1253;60359;-87
2023/06/22 06:38:36;;;;;;;15.40;12.10;;;;;;;36.35;41.17;101085.13;106561;1259;59391;-88
2023/06/22 06:41:29;;;;;;;15.70;11.90;;;;;;;36.41;43.09;101081.91;106199;1253;74571;-88
2023/06/22 06:44:21;;;;;;;18.90;12.80;;;;;;;36.45;43.90;101082.55;107093;1253;60609;-88
2023/06/22 06:47:10;;;;;;;16.60;12.40;;;;;;;36.30;42.24;101077.38;106347;1259;65053;-90
2023/06/22 06:50:00;;;;;;;16.00;11.50;;;;;;;36.14;42.69;101072.63;106405;1255;60447;-88
2023/06/22 06:52:59;;;;;;;12.70;10.10;;;;;;;36.17;43.06;101070.78;106273;1254;60362;-89
2023/06/22 06:55:48;;;;;;;13.80;9.30;;;;;;;36.21;43.03;101068.71;106357;1253;75089;-89
2023/06/22 06:58:42;;;;;;;15.50;11.60;;;;;;;36.62;42.58;101064.66;106247;1253;60534;-90
2023/06/22 07:01:37;;;;;;;17.50;10.70;;;;;;;36.83;44.61;101065.27;107321;1253;75114;-88
2023/06/22 07:04:31;;;;;;;12.70;9.80;;;;;;;36.96;45.17;101062.83;106355;1259;60436;-88
2023/06/22 07:07:38;;;;;;;13.10;9.70;;;;;;;36.98;44.64;101058.67;106504;1259;60511;-88
2023/06/22 07:10:41;;;;;;;12.50;9.20;;;;;;;37.09;43.59;101059.08;106283;1253;63766;-89
2023/06/22 07:13:34;;;;;;;13.30;10.00;;;;;;;37.04;44.87;101059.04;106521;1253;61584;-89
2023/06/22 07:16:29;;;;;;;14.70;11.00;;;;;;;36.57;47.32;101061.34;106865;1254;62508;-89
2023/06/22 07:19:25;;;;;;;16.20;11.60;;;;;;;36.45;48.06;101061.00;106431;1253;60534;-87
2023/06/22 07:22:24;;;;;;;14.90;9.80;;;;;;;36.40;48.07;101063.64;106463;1254;59370;-87
2023/06/22 07:25:14;;;;;;;10.70;8.80;;;;;;;36.23;48.97;101063.30;106181;1253;64155;-88
2023/06/22 07:28:05;;;;;;;15.60;10.00;;;;;;;36.55;48.53;101061.89;106258;1254;60531;-88
2023/06/22 07:30:54;;;;;;;15.40;9.80;;;;;;;36.92;47.42;101060.80;106326;1256;62661;-88
2023/06/22 07:33:45;;;;;;;14.50;9.80;;;;;;;37.00;46.38;101059.29;106502;1255;60403;-89
2023/06/22 07:36:53;;;;;;;14.80;9.80;;;;;;;37.15;46.09;101059.05;108025;1253;60413;-88
2023/06/22 07:39:53;;;;;;;14.00;9.70;;;;;;;37.09;47.34;101059.21;106337;1253;66488;-87
2023/06/22 07:42:42;;;;;;;15.70;10.90;;;;;;;37.15;47.78;101059.77;106596;1259;60596;-88
2023/06/22 07:45:34;;;;;;;13.10;9.80;;;;;;;37.09;47.51;101055.78;106290;1259;65710;-88
2023/06/22 07:48:25;;;;;;;11.50;8.70;;;;;;;36.85;49.01;101057.31;106337;1254;60323;-89
2023/06/22 07:51:15;;;;;;;12.50;9.30;;;;;;;36.87;49.64;101057.19;106912;1261;59300;-88
2023/06/22 07:54:07;;;;;;;13.00;9.10;;;;;;;36.99;49.25;101052.56;106487;1260;64299;-87
2023/06/22 07:57:00;;;;;;;12.20;9.30;;;;;;;37.22;48.07;101055.30;106452;1259;60757;-88
2023/06/22 07:59:50;;;;;;;14.30;8.90;;;;;;;37.26;48.57;101050.27;106669;1254;73222;-88
2023/06/22 08:02:41;;;;;;;13.40;9.40;;;;;;;37.19;48.33;101054.73;106566;1255;60464;-89
2023/06/22 08:05:30;;;;;;;12.50;9.90;;;;;;;37.16;47.09;101054.96;106368;1256;60471;-89
2023/06/22 08:08:19;;;;;;;12.10;8.10;;;;;;;37.00;47.86;101054.09;106509;1254;67260;-90
2023/06/22 08:11:17;;;;;;;12.00;8.10;;;;;;;37.24;45.02;101060.29;106594;1253;61889;-90
2023/06/22 08:14:23;;;;;;;11.00;7.50;;;;;;;36.60;46.86;101059.73;106270;1260;64160;-89
2023/06/22 08:17:24;;;;;;;10.40;7.90;;;;;;;36.32;47.92;101062.04;106775;1254;60445;-90
2023/06/22 08:20:26;;;;;;;;;;;;;;;36.01;49.39;101062.57;106942;1253;59554;-90
2023/06/22 08:23:18;;;;;;;11.90;8.40;;;;;;;35.61;52.56;101064.80;106206;1253;64116;-89
2023/06/22 08:26:10;;;;;;;12.00;8.20;;;;;;;35.61;52.60;101064.83;106316;1258;60745;-89
2023/06/22 08:29:00;;;;;;;12.20;8.40;;;;;;;35.66;53.63;101064.70;106570;1257;62995;-89
2023/06/22 08:31:51;;;;;;;10.50;8.20;;;;;;;35.79;54.21;101064.09;106515;1254;60492;-88
2023/06/22 08:34:42;;;;;;;11.60;8.90;;;;;;;35.99;54.35;101063.77;106902;1253;60519;-89
2023/06/22 08:37:41;;;;;;;11.70;8.20;;;;;;;36.34;54.14;101066.86;106387;1253;63683;-89
2023/06/22 08:40:38;;;;;;;11.60;8.00;;;;;;;36.68;53.27;101064.94;106415;1259;69915;-88
2023/06/22 08:43:27;;;;;;;11.90;8.50;;;;;;;36.73;52.30;101069.43;106217;1254;66093;-89
2023/06/22 08:46:23;;;;;;;;;;;;;;;37.03;51.04;101074.85;106344;1256;60496;-89
2023/06/22 08:49:24;;;;;;;20.90;9.10;;;;;;;37.33;49.36;101079.07;106405;1254;61041;-89
2023/06/22 08:52:45;;;;;;;11.30;7.70;;;;;;;37.66;48.50;101082.33;106928;1256;66926;-89
2023/06/22 08:55:35;;;;;;;11.40;8.50;;;;;;;38.04;46.29;101080.70;106472;1258;61073;-89
2023/06/22 08:58:27;;;;;;;13.00;8.10;;;;;;;38.38;44.79;101076.77;106229;1255;66389;-88
2023/06/22 09:01:36;;;;;;;14.80;9.00;;;;;;;38.36;44.96;101076.66;106571;1254;58484;-89
2023/06/22 09:04:41;;;;;;;11.80;8.60;;;;;;;38.45;44.61;101078.35;106956;1253;60241;-89
2023/06/22 09:07:30;;;;;;;13.10;8.80;;;;;;;38.46;44.06;101080.11;106681;1256;65033;-87
2023/06/22 09:10:29;;;;;;;9.60;8.20;;;;;;;38.42;43.45;101077.77;106086;1261;60559;-89
2023/06/22 09:13:24;;;;;;;11.20;7.50;;;;;;;38.23;43.52;101082.86;106460;1259;64514;-89
2023/06/22 09:16:16;;;;;;;11.60;7.80;;;;;;;38.14;43.65;101080.55;106546;1255;60420;-88
2023/06/22 09:19:05;;;;;;;11.90;8.00;;;;;;;38.23;43.17;101070.23;107187;1254;60505;-89
2023/06/22 09:22:06;;;;;;;10.60;7.80;;;;;;;38.42;42.96;101067.77;106487;1252;63643;-89
2023/06/22 09:24:59;;;;;;;9.60;7.30;;;;;;;38.70;42.20;101067.42;106500;1258;59009;-89
2023/06/22 09:27:58;;;;;;;10.70;7.40;;;;;;;38.91;41.51;101063.29;106472;1257;64310;-90
2023/06/22 09:30:59;;;;;;;9.90;7.80;;;;;;;38.96;40.91;101061.08;106210;1260;60445;-88
2023/06/22 09:34:15;;;;;;;10.90;7.90;;;;;;;38.95;40.70;101066.25;106367;1254;60462;-90
2023/06/22 09:37:26;;;;;;;9.60;7.00;;;;;;;38.92;40.36;101060.04;106449;1259;64614;-88
2023/06/22 09:40:20;;;;;;;13.30;8.00;;;;;;;38.87;39.99;101056.58;106130;1258;60495;-89
2023/06/22 09:43:20;;;;;;;13.40;8.20;;;;;;;39.10;38.05;101056.65;106499;1257;65941;-88
2023/06/22 09:46:12;;;;;;;11.70;7.00;;;;;;;39.28;37.45;101050.67;106341;1260;60549;-88
2023/06/22 09:49:16;;;;;;;11.10;7.50;;;;;;;39.45;36.24;101050.59;106974;1258;60359;-88
2023/06/22 09:52:29;;;;;;;13.00;7.90;;;;;;;39.61;35.60;101040.02;106314;1258;66249;-88
2023/06/22 09:55:41;;;;;;;8.70;6.90;;;;;;;39.66;36.02;101035.16;106194;1257;60310;-88
2023/06/22 09:58:43;;;;;;;9.10;6.70;;;;;;;39.52;34.74;101029.11;106136;1258;73529;-89
2023/06/22 10:01:37;;;;;;;10.00;7.00;;;;;;;39.60;34.95;101028.14;106203;1254;61030;-89
2023/06/22 10:04:29;;;;;;;9.10;6.10;;;;;;;39.71;34.29;101027.45;106327;1255;60109;-89
2023/06/22 10:07:20;;;;;;;9.40;6.60;;;;;;;39.88;32.84;101029.77;107423;1255;64142;-87
2023/06/22 10:10:11;;;;;;;7.00;5.90;;;;;;;40.10;32.24;101029.41;106515;1259;60344;-88
2023/06/22 10:13:15;;;;;;;11.40;6.60;;;;;;;40.13;31.41;101037.95;106178;1260;64900;-88
2023/06/22 10:16:15;;;;;;;7.70;5.30;;;;;;;40.11;30.73;101046.30;106214;1258;60515;-87
2023/06/22 10:19:11;;;;;;;8.40;6.00;;;;;;;40.00;29.01;101060.66;106380;1260;60370;-87
2023/06/22 10:22:10;;;;;;;8.00;6.20;;;;;;;39.49;27.82;101063.08;107559;1260;75894;-88
2023/06/22 10:25:09;;;;;;;8.10;6.20;;;;;;;38.71;29.00;101071.93;106253;1261;60530;-87
2023/06/22 10:28:04;;;;;;;7.10;6.10;;;;;;;38.09;30.11;101081.04;106233;1257;64710;-88
2023/06/22 10:31:01;;;;;;;7.80;6.30;;;;;;;37.18;31.68;101081.98;106158;1260;61185;-87
2023/06/22 10:33:51;;;;;;;11.70;6.40;;;;;;;36.75;32.66;101071.01;107550;1260;59361;-88
2023/06/22 10:36:56;;;;;;;13.00;6.60;;;;;;;36.53;33.27;101060.72;106281;1261;65488;-87
2023/06/22 10:39:54;;;;;;;9.50;6.60;;;;;;;36.36;33.34;101060.23;106289;1262;62261;-88
2023/06/22 10:42:46;;;;;;;8.20;6.10;;;;;;;35.90;33.81;101057.61;106096;1258;65903;-88
2023/06/22 10:45:35;;;;;;;6.30;5.30;;;;;;;35.92;33.03;101065.87;106166;1254;60522;-87
2023/06/22 10:48:38;;;;;;;8.10;5.90;;;;;;;35.70;32.85;101075.02;106843;1258;60509;-88
2023/06/22 10:51:43;;;;;;;8.30;5.40;;;;;;;35.46;32.99;101078.27;106007;1257;65028;-90
2023/06/22 10:54:52;;;;;;;6.90;5.20;;;;;;;35.20;32.71;101080.21;106092;1260;62665;-91
2023/06/22 10:57:52;;;;;;;10.80;6.00;;;;;;;34.91;32.82;101084.60;106410;1257;74777;-91
2023/06/22 11:01:05;;;;;;;7.60;4.80;;;;;;;34.56;33.40;101083.14;106213;1260;60438;-91
2023/06/22 11:04:10;;;;;;;7.50;4.80;;;;;;;34.37;33.43;101080.76;107100;1256;60334;-91
2023/06/22 11:07:06;;;;;;;6.00;5.00;;;;;;;34.25;33.21;101080.62;106516;1253;66137;-91
2023/06/22 11:10:09;;;;;;;7.70;4.70;;;;;;;34.16;33.32;101075.80;106289;1259;69234;-92
2023/06/22 11:13:15;;;;;;;8.90;5.20;;;;;;;33.86;33.36;101074.09;106291;1257;64252;-90
2023/06/22 11:16:17;;;;;;;7.80;6.00;;;;;;;33.60;33.64;101066.88;106388;1256;60520;-91
2023/06/22 11:19:15;;;;;;;7.40;6.40;;;;;;;33.72;33.69;101065.52;107181;1260;60341;-90
2023/06/22 11:22:16;;;;;;;9.60;6.70;;;;;;;33.86;33.66;101065.51;106225;1255;67409;-93
2023/06/22 11:25:13;;;;;;;8.40;6.80;;;;;;;33.81;33.97;101064.52;106495;1260;60346;-92
2023/06/22 11:28:09;;;;;;;7.90;6.50;;;;;;;33.62;34.73;101061.60;106113;1255;73746;-91
2023/06/22 11:30:57;;;;;;;9.20;6.70;;;;;;;33.61;35.14;101062.11;106801;1256;60467;-90
2023/06/22 11:33:55;;;;;;;10.50;6.70;;;;;;;33.78;35.25;101059.13;106333;1254;60470;-90
2023/06/22 11:36:44;;;;;;;9.30;5.90;;;;;;;34.07;34.90;101054.52;106210;1256;66816;-89
2023/06/22 11:39:36;;;;;;;7.00;5.90;;;;;;;34.06;35.01;101055.84;106418;1254;60469;-91
2023/06/22 11:42:44;;;;;;;7.70;5.80;;;;;;;34.64;33.94;101059.10;106367;1259;64296;-90
2023/06/22 11:45:36;;;;;;;7.60;5.80;;;;;;;34.93;33.57;101057.88;106208;1257;60453;-89
2023/06/22 11:48:31;;;;;;;6.70;5.30;;;;;;;35.24;33.31;101055.15;107896;1257;60396;-90
2023/06/22 11:51:31;;;;;;;6.30;5.10;;;;;;;35.94;31.96;101055.06;106215;1254;66164;-90
2023/06/22 11:54:20;;;;;;;8.20;4.90;;;;;;;36.66;30.53;101053.81;106204;1254;60411;-89
2023/06/22 11:57:12;;;;;;;;;;;;;;;37.00;29.75;101051.48;106267;1260;65530;-89
2023/06/22 12:00:09;;;;;;;7.40;4.80;;;;;;;37.10;30.07;101049.52;106382;1259;60584;-90
2023/06/22 12:03:28;;;;;;;8.00;4.80;;;;;;;37.25;29.70;101043.23;107408;1254;59283;-91
2023/06/22 12:06:33;;;;;;;4.90;4.40;;;;;;;37.40;29.39;101038.33;106220;1260;74598;-90
2023/06/22 12:09:22;;;;;;;5.40;4.00;;;;;;;37.62;29.14;101032.90;106358;1254;60422;-90
2023/06/22 12:12:11;;;;;;;5.90;4.90;;;;;;;37.95;28.69;101035.09;106266;1254;64801;-89
2023/06/22 12:15:12;;;;;;;6.70;4.60;;;;;;;38.02;27.84;101034.79;106871;1254;60433;-87
2023/06/22 12:18:20;;;;;;;5.60;4.20;;;;;;;38.26;27.37;101036.22;106184;1255;60489;-87
2023/06/22 12:21:09;;;;;;;3.40;3.10;;;;;;;38.49;26.86;101034.84;106284;1254;65843;-87
2023/06/22 12:23:58;;;;;;;8.00;3.90;;;;;;;38.70;26.24;101039.44;106238;1253;60549;-87
2023/06/22 12:26:53;;;;;;;5.00;3.70;;;;;;;38.76;26.19;101039.73;105996;1257;63848;-88
2023/06/22 12:29:47;;;;;;;5.20;4.10;;;;;;;38.99;26.01;101042.14;106901;1254;60347;-88
2023/06/22 12:32:36;;;;;;;6.10;4.20;;;;;;;38.80;25.81;101043.73;106237;1260;60298;-88
2023/06/22 12:35:28;;;;;;;4.70;3.90;;;;;;;38.60;26.12;101047.43;106131;1258;67250;-87
2023/06/22 12:38:26;;;;;;;8.70;4.30;;;;;;;38.38;26.73;101048.25;106493;1254;61674;-87
2023/06/22 12:41:15;;;;;;;;;;;;;;;38.16;27.19;101054.65;106224;1254;65744;-88
2023/06/22 12:44:09;;;;;;;5.40;4.20;;;;;;;37.91;28.07;101065.35;106856;1257;60270;-88
2023/06/22 12:46:58;;;;;;;8.30;4.80;;;;;;;37.35;29.68;101068.01;106376;1254;59361;-87
2023/06/22 12:49:53;;;;;;;6.60;4.60;;;;;;;36.74;31.01;101058.32;106070;1254;66996;-88
2023/06/22 12:52:49;;;;;;;5.90;4.70;;;;;;;36.35;31.39;101050.67;106233;1259;60307;-88
2023/06/22 12:55:48;;;;;;;6.40;4.60;;;;;;;35.80;32.23;101053.86;106255;1254;65704;-88
2023/06/22 12:58:39;;;;;;;6.00;4.60;;;;;;;35.66;32.73;101048.55;107398;1254;60404;-87
2023/06/22 13:01:34;;;;;;;5.80;4.50;;;;;;;35.82;32.39;101043.19;106303;1254;60509;-88
2023/06/22 13:04:28;;;;;;;7.40;4.60;;;;;;;35.94;32.04;101040.06;106356;1257;65392;-87
2023/06/22 13:07:26;;;;;;;5.20;4.60;;;;;;;36.03;31.86;101036.75;106580;1257;60725;-86